This is the latest recevied weather packets stored in our database for station/object N4OGP-WX. If no packets are shown the sender has not sent any weather packets the latest 10 day(s).
| Time | Temp. | Humidity | Pressure | Rain* | Wind** | Luminosity | Snow |
|---|---|---|---|---|---|---|---|
| 1777655271 | 20° C | 84% | 1010.3 hPa | 0 mm | - | - | - |
| 1777655211 | 23.89° C | 42% | 1020.4 hPa | 0 mm | - | - | - |
| 1777655121 | 20° C | 85% | 1010.3 hPa | 0 mm | - | - | - |
| 1777655061 | 23.89° C | 42% | 1020.4 hPa | 0 mm | - | - | - |
| 1777655001 | 23.89° C | 42% | 1020.4 hPa | 0 mm | - | - | - |
| 1777654941 | 20.56° C | 84% | 1010.4 hPa | 0 mm | - | - | - |
| 1777654851 | 23.89° C | 42% | 1020.4 hPa | 0 mm | - | - | - |
| 1777654791 | 20.56° C | 84% | 1010.3 hPa | 0 mm | - | - | - |
| 1777654731 | 20.56° C | 84% | 1010.3 hPa | 0 mm | - | - | - |
| 1777654641 | 20.56° C | 84% | 1010.3 hPa | 0 mm | - | - | - |
| 1777654581 | 20.56° C | 84% | 1010.4 hPa | 0 mm | - | - | - |
| 1777654521 | 20.56° C | 84% | 1010.4 hPa | 0 mm | - | - | - |
| 1777654461 | 23.89° C | 42% | 1020.4 hPa | 0 mm | - | - | - |
| 1777654401 | 20.56° C | 84% | 1010.5 hPa | 0 mm | - | - | - |
| 1777654341 | 23.89° C | 42% | 1020.4 hPa | 0 mm | - | - | - |
| 1777654281 | 20.56° C | 84% | 1010.5 hPa | 0 mm | - | - | - |
| 1777654221 | 23.89° C | 42% | 1020.4 hPa | 0 mm | - | - | - |
| 1777654161 | 23.89° C | 42% | 1020.4 hPa | 0 mm | - | - | - |
| 1777654101 | 20.56° C | 83% | 1010.4 hPa | 0 mm | - | - | - |
| 1777654041 | 20.56° C | 83% | 1010.5 hPa | 0 mm | - | - | - |
| 1777653981 | 23.89° C | 42% | 1020.4 hPa | 0 mm | - | - | - |
| 1777653891 | 20.56° C | 83% | 1010.5 hPa | 0 mm | - | - | - |
| 1777653831 | 23.89° C | 42% | 1020.4 hPa | 0 mm | - | - | - |
| 1777653771 | 20.56° C | 83% | 1010.5 hPa | 0 mm | - | - | - |
| 1777653681 | 20.56° C | 83% | 1010.5 hPa | 0 mm | - | - | - |
* Rain latest hour (hover to see other rain measurements)
** Current wind speed in m/s (hover to see current wind gust speed)